Time;durP1;ratioP1;P1;durP2;ratioP2;P2;SDS_P1;SDS_P2;PMS_P1;PMS_P2;Temp;Humidity;BMP_temperature;BMP_pressure;BME280_temperature;BME280_humidity;BME280_pressure;Samples;Min_cycle;Max_cycle;Signal;HPM_P1;HPM_P2
2024/01/12 00:00:01;;;;;;;65.35;25.60;;;;;;;;;;5031224;28;20120;-73
2024/01/12 00:02:27;;;;;;;54.35;23.65;;;;;;;;;;5031784;28;20071;-73
2024/01/12 00:04:53;;;;;;;58.10;24.10;;;;;;;;;;5033995;28;20168;-73
2024/01/12 00:07:19;;;;;;;69.15;27.30;;;;;;;;;;5031272;28;20186;-73
2024/01/12 00:09:45;;;;;;;62.47;25.45;;;;;;;;;;5013971;28;20045;-73
2024/01/12 00:12:11;;;;;;;71.47;25.73;;;;;;;;;;5030711;28;20037;-73
2024/01/12 00:14:37;;;;;;;69.95;26.80;;;;;;;;;;5031404;28;20063;-73
2024/01/12 00:17:03;;;;;;;72.35;27.02;;;;;;;;;;5042419;22;20049;-65
2024/01/12 00:19:29;;;;;;;61.72;26.00;;;;;;;;;;4995722;28;20057;-67
2024/01/12 00:21:55;;;;;;;70.28;28.65;;;;;;;;;;5053775;22;20416;-68
2024/01/12 00:24:21;;;;;;;68.10;26.40;;;;;;;;;;5036674;28;20120;-69
2024/01/12 00:26:48;;;;;;;66.78;27.10;;;;;;;;;;5054036;28;20041;-68
2024/01/12 00:29:14;;;;;;;68.63;25.52;;;;;;;;;;5037002;28;20048;-69
2024/01/12 00:31:40;;;;;;;63.63;26.70;;;;;;;;;;5053347;28;20063;-68
2024/01/12 00:34:06;;;;;;;72.47;26.85;;;;;;;;;;5053344;28;20040;-68
2024/01/12 00:36:32;;;;;;;63.60;25.92;;;;;;;;;;5053375;28;20489;-69
2024/01/12 00:38:57;;;;;;;63.38;26.95;;;;;;;;;;5053175;28;20078;-69
2024/01/12 00:41:24;;;;;;;76.32;27.58;;;;;;;;;;5053088;28;20045;-69
2024/01/12 00:43:50;;;;;;;60.35;25.05;;;;;;;;;;5053775;28;20377;-68
2024/01/12 00:46:16;;;;;;;58.13;24.02;;;;;;;;;;5052776;28;20041;-68
2024/01/12 00:48:43;;;;;;;60.72;24.88;;;;;;;;;;5053046;28;20041;-68
2024/01/12 00:51:10;;;;;;;61.35;25.45;;;;;;;;;;5052832;28;20056;-68
2024/01/12 00:53:36;;;;;;;59.78;24.35;;;;;;;;;;5053312;28;20084;-68
2024/01/12 00:56:03;;;;;;;63.08;24.85;;;;;;;;;;5054332;28;20037;-68
2024/01/12 00:58:29;;;;;;;60.13;25.02;;;;;;;;;;5052867;28;20055;-68
2024/01/12 01:00:55;;;;;;;62.55;24.73;;;;;;;;;;5052940;28;20507;-68
2024/01/12 01:03:21;;;;;;;61.00;23.85;;;;;;;;;;5053080;28;20091;-69
2024/01/12 01:05:48;;;;;;;52.67;20.98;;;;;;;;;;5053068;28;20040;-69
2024/01/12 01:08:14;;;;;;;59.30;23.95;;;;;;;;;;5052781;28;20099;-68
2024/01/12 01:10:41;;;;;;;55.35;23.63;;;;;;;;;;5052527;28;20073;-68
2024/01/12 01:13:08;;;;;;;57.47;22.17;;;;;;;;;;5052659;28;20424;-68
2024/01/12 01:15:34;;;;;;;61.33;22.95;;;;;;;;;;5052814;28;20513;-69
2024/01/12 01:18:00;;;;;;;58.05;24.60;;;;;;;;;;5052813;28;20369;-68
2024/01/12 01:20:26;;;;;;;53.47;22.08;;;;;;;;;;5053602;28;20072;-68
2024/01/12 01:22:51;;;;;;;63.33;22.88;;;;;;;;;;5052484;28;20045;-69
2024/01/12 01:25:18;;;;;;;57.63;22.35;;;;;;;;;;5053707;28;20052;-68
2024/01/12 01:27:44;;;;;;;57.38;22.80;;;;;;;;;;5052289;28;20052;-69
2024/01/12 01:30:11;;;;;;;52.03;22.52;;;;;;;;;;5052600;28;20485;-68
2024/01/12 01:32:37;;;;;;;52.17;22.38;;;;;;;;;;5051263;28;20044;-68
2024/01/12 01:35:03;;;;;;;52.83;21.67;;;;;;;;;;5051904;28;20037;-69
2024/01/12 01:37:29;;;;;;;49.03;20.60;;;;;;;;;;5052451;28;20036;-68
2024/01/12 01:42:26;;;;;;;51.50;20.27;;;;;;;;;;5012288;28;20056;-67
2024/01/12 01:44:52;;;;;;;55.28;19.52;;;;;;;;;;4995931;28;20037;-67
2024/01/12 01:47:18;;;;;;;46.38;19.02;;;;;;;;;;4995822;28;20042;-67
2024/01/12 01:49:44;;;;;;;50.30;18.77;;;;;;;;;;4995962;28;20132;-67
2024/01/12 01:52:10;;;;;;;38.92;17.00;;;;;;;;;;5013375;28;20056;-67
2024/01/12 01:54:36;;;;;;;39.55;15.32;;;;;;;;;;4996007;28;20041;-67
2024/01/12 01:57:03;;;;;;;35.40;13.40;;;;;;;;;;4995953;28;20049;-67
2024/01/12 01:59:29;;;;;;;35.47;13.27;;;;;;;;;;4995802;28;20052;-67
2024/01/12 02:01:55;;;;;;;41.00;13.52;;;;;;;;;;4996146;28;20561;-67
2024/01/12 02:04:21;;;;;;;32.17;13.18;;;;;;;;;;4995552;28;20042;-67
2024/01/12 02:06:48;;;;;;;31.17;12.88;;;;;;;;;;4995476;28;20321;-68
2024/01/12 02:09:14;;;;;;;35.65;13.77;;;;;;;;;;4995392;28;20454;-68
2024/01/12 02:11:40;;;;;;;39.83;14.13;;;;;;;;;;4979218;28;20133;-67
2024/01/12 02:14:07;;;;;;;37.47;14.38;;;;;;;;;;4995576;28;20052;-67
2024/01/12 02:16:36;;;;;;;34.13;14.30;;;;;;;;;;4995522;28;20049;-67
2024/01/12 02:19:02;;;;;;;32.85;13.15;;;;;;;;;;4995376;28;20053;-67
2024/01/12 02:21:28;;;;;;;37.05;13.40;;;;;;;;;;4995596;28;20430;-67
2024/01/12 02:23:54;;;;;;;36.75;12.52;;;;;;;;;;4995263;28;20501;-67
2024/01/12 02:26:20;;;;;;;30.00;11.40;;;;;;;;;;4995079;28;20132;-68
2024/01/12 02:28:47;;;;;;;26.70;11.65;;;;;;;;;;4995106;28;20458;-68
2024/01/12 02:31:13;;;;;;;37.40;11.77;;;;;;;;;;4995052;28;20050;-67
2024/01/12 02:33:39;;;;;;;30.45;11.48;;;;;;;;;;4978946;28;20406;-67
2024/01/12 02:36:05;;;;;;;30.30;11.18;;;;;;;;;;4994922;28;20049;-68
2024/01/12 02:38:31;;;;;;;28.65;11.48;;;;;;;;;;4995024;28;20052;-68
2024/01/12 02:40:57;;;;;;;30.20;10.77;;;;;;;;;;4994918;28;20042;-67
2024/01/12 02:43:23;;;;;;;27.33;11.30;;;;;;;;;;4994868;28;20080;-68
2024/01/12 02:45:49;;;;;;;28.85;10.73;;;;;;;;;;4994704;28;20105;-67
2024/01/12 02:48:15;;;;;;;23.52;10.20;;;;;;;;;;4994826;28;20516;-67
2024/01/12 02:50:41;;;;;;;28.63;10.73;;;;;;;;;;4978470;28;20049;-67
2024/01/12 02:53:07;;;;;;;26.90;9.57;;;;;;;;;;4994864;28;20046;-68
2024/01/12 02:55:32;;;;;;;25.20;9.68;;;;;;;;;;4994720;28;20030;-67
2024/01/12 02:57:58;;;;;;;20.60;9.32;;;;;;;;;;4995046;28;20381;-67
2024/01/12 03:00:24;;;;;;;25.83;9.38;;;;;;;;;;4978484;28;20038;-67
2024/01/12 03:02:50;;;;;;;24.52;8.65;;;;;;;;;;4994931;28;20120;-68
2024/01/12 03:05:16;;;;;;;29.25;9.85;;;;;;;;;;4994298;28;20141;-67
2024/01/12 03:07:42;;;;;;;22.73;9.60;;;;;;;;;;4994335;28;20041;-68
2024/01/12 03:10:09;;;;;;;23.20;9.65;;;;;;;;;;4994844;28;20033;-68
2024/01/12 03:12:35;;;;;;;19.85;8.82;;;;;;;;;;4994413;28;20070;-67
2024/01/12 03:15:01;;;;;;;20.48;8.50;;;;;;;;;;4994551;28;20178;-68
2024/01/12 03:17:27;;;;;;;23.17;9.07;;;;;;;;;;4978209;28;20041;-67
2024/01/12 03:19:53;;;;;;;22.80;9.57;;;;;;;;;;5012772;28;20116;-67
2024/01/12 03:22:19;;;;;;;18.80;8.25;;;;;;;;;;4994305;28;20100;-68
2024/01/12 03:24:45;;;;;;;18.55;8.95;;;;;;;;;;4994716;28;20497;-68
2024/01/12 03:27:11;;;;;;;15.73;8.60;;;;;;;;;;4994333;28;20046;-68
2024/01/12 03:29:36;;;;;;;23.48;9.65;;;;;;;;;;4994614;28;20050;-68
2024/01/12 03:32:05;;;;;;;19.92;8.05;;;;;;;;;;4994683;28;20089;-68
2024/01/12 03:34:34;;;;;;;;;;;;;;;;;;4994934;28;20037;-68
2024/01/12 03:37:00;;;;;;;16.05;7.55;;;;;;;;;;4994215;28;19924;-68
2024/01/12 03:39:26;;;;;;;20.60;8.68;;;;;;;;;;4994862;28;20406;-68
2024/01/12 03:41:52;;;;;;;14.98;8.00;;;;;;;;;;4994132;28;20053;-68
2024/01/12 03:44:18;;;;;;;13.82;7.75;;;;;;;;;;4994608;28;20409;-68
2024/01/12 03:46:44;;;;;;;16.75;7.97;;;;;;;;;;4993980;28;20045;-68
2024/01/12 03:49:10;;;;;;;21.17;8.38;;;;;;;;;;4994199;28;20052;-68
2024/01/12 03:51:36;;;;;;;24.20;8.18;;;;;;;;;;4994067;28;20049;-68
2024/01/12 03:54:02;;;;;;;18.17;8.35;;;;;;;;;;4994574;28;20429;-68
2024/01/12 03:56:28;;;;;;;19.40;8.70;;;;;;;;;;4997631;28;20038;-68
2024/01/12 03:58:54;;;;;;;18.83;8.77;;;;;;;;;;4998589;28;20100;-68
2024/01/12 04:01:21;;;;;;;17.98;8.52;;;;;;;;;;4997866;28;20104;-68
2024/01/12 04:03:47;;;;;;;17.23;7.70;;;;;;;;;;4997841;28;20093;-68
2024/01/12 04:06:13;;;;;;;20.95;8.80;;;;;;;;;;4998045;28;20523;-68
2024/01/12 04:08:39;;;;;;;18.92;8.40;;;;;;;;;;4981478;28;20049;-68
2024/01/12 04:11:05;;;;;;;15.88;8.02;;;;;;;;;;4997745;28;20034;-68
2024/01/12 04:13:32;;;;;;;20.42;8.52;;;;;;;;;;4997706;28;20054;-68
2024/01/12 04:15:58;;;;;;;17.85;7.43;;;;;;;;;;4997758;28;20181;-68
2024/01/12 04:18:24;;;;;;;18.77;7.95;;;;;;;;;;4997450;28;20050;-68
2024/01/12 04:20:50;;;;;;;17.80;8.32;;;;;;;;;;4997545;28;20046;-68
2024/01/12 04:23:16;;;;;;;22.45;8.32;;;;;;;;;;4997573;28;20045;-68
2024/01/12 04:25:42;;;;;;;17.48;8.32;;;;;;;;;;4997847;28;20042;-68
2024/01/12 04:28:08;;;;;;;20.00;7.97;;;;;;;;;;4997484;28;20050;-68
2024/01/12 04:30:34;;;;;;;14.93;7.80;;;;;;;;;;4997619;28;20129;-68
2024/01/12 04:33:00;;;;;;;18.80;7.95;;;;;;;;;;4997238;28;20502;-68
2024/01/12 04:35:26;;;;;;;19.33;8.40;;;;;;;;;;4997351;28;20073;-68
2024/01/12 04:37:52;;;;;;;17.98;8.10;;;;;;;;;;4997592;28;20121;-68
2024/01/12 04:40:18;;;;;;;15.38;8.25;;;;;;;;;;4997336;28;20157;-68
2024/01/12 04:42:44;;;;;;;16.55;9.00;;;;;;;;;;4997083;28;20038;-67
2024/01/12 04:45:10;;;;;;;16.65;8.60;;;;;;;;;;4997112;28;20132;-68
2024/01/12 04:47:36;;;;;;;17.92;7.93;;;;;;;;;;4996736;28;20104;-68
2024/01/12 04:50:03;;;;;;;15.85;8.27;;;;;;;;;;4997072;28;20038;-68
2024/01/12 04:52:28;;;;;;;16.10;8.27;;;;;;;;;;4996839;28;20122;-67
2024/01/12 04:54:55;;;;;;;14.25;7.90;;;;;;;;;;4996945;28;20117;-67
2024/01/12 04:57:20;;;;;;;17.15;7.88;;;;;;;;;;4996769;28;20053;-68
2024/01/12 04:59:46;;;;;;;18.23;7.82;;;;;;;;;;4997359;28;20050;-68
2024/01/12 05:02:12;;;;;;;18.17;8.13;;;;;;;;;;4996809;28;20041;-68
2024/01/12 05:04:38;;;;;;;20.67;7.63;;;;;;;;;;4980845;28;20100;-68
2024/01/12 05:07:04;;;;;;;17.40;7.53;;;;;;;;;;4994498;28;20066;-68
2024/01/12 05:09:30;;;;;;;21.42;8.43;;;;;;;;;;4996774;28;20052;-68
2024/01/12 05:11:59;;;;;;;15.75;8.32;;;;;;;;;;4980955;28;20128;-68
2024/01/12 05:14:25;;;;;;;19.65;8.40;;;;;;;;;;4996557;28;20038;-68
2024/01/12 05:16:51;;;;;;;18.52;7.95;;;;;;;;;;4996522;28;20046;-68
2024/01/12 05:19:17;;;;;;;23.73;8.63;;;;;;;;;;4996411;28;20081;-68
2024/01/12 05:21:43;;;;;;;21.52;8.32;;;;;;;;;;4996409;28;20147;-67
2024/01/12 05:24:09;;;;;;;18.52;7.95;;;;;;;;;;4996444;28;20052;-67
2024/01/12 05:26:36;;;;;;;19.67;8.50;;;;;;;;;;4996445;28;20041;-68
2024/01/12 05:29:02;;;;;;;19.65;8.63;;;;;;;;;;4996345;28;20460;-70
2024/01/12 05:31:28;;;;;;;18.70;8.85;;;;;;;;;;4996530;28;20046;-68
2024/01/12 05:33:54;;;;;;;19.13;8.43;;;;;;;;;;4996152;28;20045;-68
2024/01/12 05:36:21;;;;;;;21.55;8.40;;;;;;;;;;4996512;28;20038;-68
2024/01/12 05:38:47;;;;;;;21.17;7.82;;;;;;;;;;4996049;28;20046;-68
2024/01/12 05:41:14;;;;;;;13.75;8.00;;;;;;;;;;4979750;28;20046;-68
2024/01/12 05:43:40;;;;;;;18.70;8.25;;;;;;;;;;4995973;28;20046;-68
2024/01/12 05:46:07;;;;;;;20.25;7.65;;;;;;;;;;4996027;28;20049;-68
2024/01/12 05:48:33;;;;;;;20.27;7.80;;;;;;;;;;4995984;28;20046;-68
2024/01/12 05:51:00;;;;;;;17.70;8.00;;;;;;;;;;4995832;28;20038;-68
2024/01/12 05:53:26;;;;;;;16.77;7.57;;;;;;;;;;4996120;28;20509;-68
2024/01/12 05:55:52;;;;;;;17.33;8.30;;;;;;;;;;4995947;28;20129;-68
2024/01/12 05:58:19;;;;;;;21.05;8.00;;;;;;;;;;4995830;28;20084;-68
2024/01/12 06:00:46;;;;;;;22.90;7.97;;;;;;;;;;4995850;28;20041;-67
2024/01/12 06:03:12;;;;;;;20.33;8.32;;;;;;;;;;4995631;28;20088;-68
2024/01/12 06:05:38;;;;;;;18.73;7.75;;;;;;;;;;5013221;28;20125;-68
2024/01/12 06:08:04;;;;;;;18.05;7.57;;;;;;;;;;4995455;28;20046;-68
2024/01/12 06:10:30;;;;;;;15.43;7.40;;;;;;;;;;4995350;28;20041;-67
2024/01/12 06:12:56;;;;;;;21.05;8.07;;;;;;;;;;4995579;28;20072;-68
2024/01/12 06:15:22;;;;;;;16.70;7.13;;;;;;;;;;4995406;28;20551;-68
2024/01/12 06:17:48;;;;;;;19.45;7.68;;;;;;;;;;5047383;22;20040;-66
2024/01/12 06:20:14;;;;;;;24.20;8.00;;;;;;;;;;5051370;28;20053;-66
2024/01/12 06:22:40;;;;;;;15.60;7.13;;;;;;;;;;5043629;28;20132;-66
2024/01/12 06:25:07;;;;;;;19.08;7.35;;;;;;;;;;5032429;28;20120;-66
2024/01/12 06:27:33;;;;;;;19.67;7.68;;;;;;;;;;5025254;28;20033;-66
2024/01/12 06:29:59;;;;;;;18.90;7.55;;;;;;;;;;5048113;28;20036;-66
2024/01/12 06:32:25;;;;;;;22.00;7.78;;;;;;;;;;5045449;28;20099;-66
2024/01/12 06:34:51;;;;;;;20.02;7.60;;;;;;;;;;5020542;28;20049;-66
2024/01/12 06:37:17;;;;;;;18.05;7.35;;;;;;;;;;5035532;28;20033;-66
2024/01/12 06:39:43;;;;;;;22.85;8.43;;;;;;;;;;5028126;28;20041;-66
2024/01/12 06:42:09;;;;;;;19.88;8.15;;;;;;;;;;5032696;28;20049;-66
2024/01/12 06:44:39;;;;;;;22.30;7.57;;;;;;;;;;5025673;28;20117;-66
2024/01/12 06:47:06;;;;;;;19.80;7.70;;;;;;;;;;5013859;28;20045;-65
2024/01/12 06:49:32;;;;;;;12.77;6.40;;;;;;;;;;5031822;28;20053;-65
2024/01/12 06:51:58;;;;;;;20.52;7.85;;;;;;;;;;5031915;28;20485;-66
2024/01/12 06:54:24;;;;;;;19.83;7.88;;;;;;;;;;5031559;28;20037;-66
2024/01/12 06:56:52;;;;;;;17.00;7.75;;;;;;;;;;5014018;28;20124;-66
2024/01/12 06:59:18;;;;;;;15.05;7.75;;;;;;;;;;5031194;28;20048;-65
2024/01/12 07:01:44;;;;;;;20.02;7.93;;;;;;;;;;5031328;28;20041;-66
2024/01/12 07:04:10;;;;;;;18.67;7.72;;;;;;;;;;5021738;28;20523;-66
2024/01/12 07:06:36;;;;;;;16.80;7.25;;;;;;;;;;5031380;28;20041;-66
2024/01/12 07:09:02;;;;;;;16.20;7.32;;;;;;;;;;5023373;28;20456;-66
2024/01/12 07:11:28;;;;;;;21.42;8.13;;;;;;;;;;5046625;28;20048;-66
2024/01/12 07:13:55;;;;;;;20.05;7.38;;;;;;;;;;5017034;28;20107;-66
2024/01/12 07:16:21;;;;;;;20.80;7.93;;;;;;;;;;5012156;28;20049;-66
2024/01/12 07:18:47;;;;;;;20.77;8.18;;;;;;;;;;5016992;28;20049;-66
2024/01/12 07:21:13;;;;;;;19.55;7.90;;;;;;;;;;5039230;28;20068;-66
2024/01/12 07:23:39;;;;;;;21.33;8.18;;;;;;;;;;5041285;28;20041;-66
2024/01/12 07:26:05;;;;;;;17.98;7.93;;;;;;;;;;5027133;28;20496;-66
2024/01/12 07:28:31;;;;;;;22.20;8.57;;;;;;;;;;5047025;28;20389;-66
2024/01/12 07:30:57;;;;;;;16.80;8.27;;;;;;;;;;5016314;28;20037;-65
2024/01/12 07:33:23;;;;;;;19.75;8.90;;;;;;;;;;5033998;28;20040;-65
2024/01/12 07:35:49;;;;;;;19.08;8.65;;;;;;;;;;5032810;28;20131;-65
2024/01/12 07:38:15;;;;;;;19.02;9.07;;;;;;;;;;5049778;28;20167;-66
2024/01/12 07:40:42;;;;;;;25.63;9.20;;;;;;;;;;5018728;28;20572;-65
2024/01/12 07:43:11;;;;;;;21.38;9.57;;;;;;;;;;5025875;28;20544;-65
2024/01/12 07:45:40;;;;;;;21.45;9.52;;;;;;;;;;5021765;28;20049;-65
2024/01/12 07:48:07;;;;;;;24.05;9.00;;;;;;;;;;5034564;28;20062;-65
2024/01/12 07:50:33;;;;;;;22.13;9.30;;;;;;;;;;5015447;28;20527;-65
2024/01/12 07:52:59;;;;;;;22.77;9.75;;;;;;;;;;5047804;28;20037;-65
2024/01/12 07:55:27;;;;;;;25.00;10.18;;;;;;;;;;5026554;28;20045;-65
2024/01/12 07:57:53;;;;;;;27.40;9.90;;;;;;;;;;5050801;28;20405;-66
2024/01/12 08:00:19;;;;;;;21.38;9.40;;;;;;;;;;5048889;28;20044;-65
2024/01/12 08:02:45;;;;;;;22.30;9.32;;;;;;;;;;5032845;28;20037;-66
2024/01/12 08:05:11;;;;;;;23.58;8.23;;;;;;;;;;5048749;28;20117;-66
2024/01/12 08:07:37;;;;;;;26.10;10.13;;;;;;;;;;5030164;28;20076;-66
2024/01/12 08:10:04;;;;;;;22.75;8.98;;;;;;;;;;5011974;28;20061;-66
2024/01/12 08:12:30;;;;;;;24.67;9.35;;;;;;;;;;5042140;28;20378;-66
2024/01/12 08:14:56;;;;;;;21.05;8.65;;;;;;;;;;5035468;28;20041;-66
2024/01/12 08:17:25;;;;;;;21.65;9.00;;;;;;;;;;5043658;28;20045;-66
2024/01/12 08:19:54;;;;;;;24.50;9.27;;;;;;;;;;5029255;28;20465;-66
2024/01/12 08:22:20;;;;;;;20.33;9.50;;;;;;;;;;5051573;28;20127;-66
2024/01/12 08:24:47;;;;;;;23.65;9.00;;;;;;;;;;5036726;28;20451;-66
2024/01/12 08:27:13;;;;;;;21.00;9.27;;;;;;;;;;5018792;28;20099;-66
2024/01/12 08:29:41;;;;;;;24.20;8.27;;;;;;;;;;5034683;28;20038;-66
2024/01/12 08:32:10;;;;;;;19.45;8.55;;;;;;;;;;5016198;28;20041;-66
2024/01/12 08:34:36;;;;;;;21.98;8.80;;;;;;;;;;5016005;28;20095;-66
2024/01/12 08:37:02;;;;;;;22.20;9.00;;;;;;;;;;5018662;28;20075;-66
2024/01/12 08:39:29;;;;;;;19.50;8.20;;;;;;;;;;5012075;28;20041;-66
2024/01/12 08:41:55;;;;;;;20.20;8.90;;;;;;;;;;5035525;28;20071;-66
2024/01/12 08:44:21;;;;;;;21.55;8.25;;;;;;;;;;5025052;28;20037;-67
2024/01/12 08:46:47;;;;;;;21.20;8.35;;;;;;;;;;5019526;28;20072;-66
2024/01/12 08:49:13;;;;;;;20.13;8.73;;;;;;;;;;5033684;28;20107;-68
2024/01/12 08:51:41;;;;;;;22.25;8.85;;;;;;;;;;5043104;28;20287;-68
2024/01/12 08:54:07;;;;;;;21.23;8.52;;;;;;;;;;5033425;28;20052;-68
2024/01/12 08:56:33;;;;;;;20.02;7.80;;;;;;;;;;5053783;28;20044;-68
2024/01/12 08:58:59;;;;;;;25.08;8.70;;;;;;;;;;5027206;28;20180;-68
2024/01/12 09:01:25;;;;;;;24.10;8.88;;;;;;;;;;5028721;28;20489;-68
2024/01/12 09:03:51;;;;;;;23.85;8.68;;;;;;;;;;5035246;28;20476;-68
2024/01/12 09:06:17;;;;;;;21.17;9.50;;;;;;;;;;5021442;28;20049;-68
2024/01/12 09:08:43;;;;;;;21.73;8.90;;;;;;;;;;5016017;28;20087;-68
2024/01/12 09:11:11;;;;;;;25.25;8.95;;;;;;;;;;5016037;28;20045;-68
2024/01/12 09:13:38;;;;;;;22.63;8.70;;;;;;;;;;5019249;28;20041;-68
2024/01/12 09:16:04;;;;;;;20.30;8.43;;;;;;;;;;5018618;28;20068;-68
2024/01/12 09:18:30;;;;;;;24.23;8.75;;;;;;;;;;5019735;28;20045;-68
2024/01/12 09:20:56;;;;;;;21.98;8.68;;;;;;;;;;5020426;28;20041;-68
2024/01/12 09:23:22;;;;;;;24.85;8.95;;;;;;;;;;5026972;28;20079;-68
2024/01/12 09:25:49;;;;;;;22.95;9.32;;;;;;;;;;5035842;28;20130;-68
2024/01/12 09:28:15;;;;;;;15.60;8.80;;;;;;;;;;5035738;28;20049;-68
2024/01/12 09:30:42;;;;;;;21.33;9.20;;;;;;;;;;5053140;28;20041;-68
2024/01/12 09:33:08;;;;;;;19.48;8.43;;;;;;;;;;5032525;28;20462;-68
2024/01/12 09:35:34;;;;;;;19.63;8.55;;;;;;;;;;5035354;28;20124;-68
2024/01/12 09:38:00;;;;;;;21.75;8.70;;;;;;;;;;5035260;28;20455;-68
2024/01/12 09:40:26;;;;;;;24.55;9.93;;;;;;;;;;5035954;28;20539;-66
2024/01/12 09:42:52;;;;;;;23.45;9.98;;;;;;;;;;5029233;28;20136;-67
2024/01/12 09:45:20;;;;;;;26.55;9.70;;;;;;;;;;5016462;28;20045;-67
2024/01/12 09:47:46;;;;;;;20.98;8.20;;;;;;;;;;5016187;28;20045;-66
2024/01/12 09:50:12;;;;;;;23.33;9.60;;;;;;;;;;5016172;28;20566;-66
2024/01/12 09:52:38;;;;;;;19.27;9.05;;;;;;;;;;5033066;28;20042;-67
2024/01/12 09:55:05;;;;;;;21.25;9.68;;;;;;;;;;5016134;28;20037;-66
2024/01/12 09:57:32;;;;;;;18.80;8.20;;;;;;;;;;5016203;28;20501;-67
2024/01/12 09:59:59;;;;;;;23.75;8.30;;;;;;;;;;5015908;28;20049;-67
2024/01/12 10:02:25;;;;;;;19.25;7.97;;;;;;;;;;5015985;28;20124;-67
2024/01/12 10:04:52;;;;;;;17.58;8.27;;;;;;;;;;5015704;28;20416;-67
2024/01/12 10:07:18;;;;;;;24.25;9.15;;;;;;;;;;5016317;28;20084;-67
2024/01/12 10:09:44;;;;;;;23.92;9.27;;;;;;;;;;5015722;28;20065;-67
2024/01/12 10:12:11;;;;;;;21.10;8.98;;;;;;;;;;5033701;28;20087;-67
2024/01/12 10:14:36;;;;;;;21.13;8.40;;;;;;;;;;5032825;28;20037;-68
2024/01/12 10:17:05;;;;;;;20.95;8.18;;;;;;;;;;5015456;28;20515;-67
2024/01/12 10:19:36;;;;;;;23.63;9.20;;;;;;;;;;5015822;28;20091;-67
2024/01/12 10:22:06;;;;;;;;;;;;;;;;;;5033737;28;20045;-66
2024/01/12 10:24:32;;;;;;;19.30;7.45;;;;;;;;;;5015071;28;19970;-66
2024/01/12 10:27:02;;;;;;;23.60;7.65;;;;;;;;;;5033157;28;20120;-66
2024/01/12 10:29:28;;;;;;;22.52;6.85;;;;;;;;;;5012991;28;20041;-66
2024/01/12 10:31:54;;;;;;;18.30;8.27;;;;;;;;;;5012740;28;20041;-67
2024/01/12 10:34:21;;;;;;;20.92;8.02;;;;;;;;;;5015351;28;20199;-66
2024/01/12 10:36:52;;;;;;;19.67;7.45;;;;;;;;;;5015538;28;20077;-65
2024/01/12 10:39:19;;;;;;;23.20;7.68;;;;;;;;;;5016203;28;20045;-65
2024/01/12 10:41:46;;;;;;;20.10;7.50;;;;;;;;;;5024960;28;20041;-66
2024/01/12 10:44:15;;;;;;;21.05;7.10;;;;;;;;;;5041755;28;20438;-66
2024/01/12 10:46:42;;;;;;;16.83;6.30;;;;;;;;;;5016933;28;20551;-65
2024/01/12 10:49:14;;;;;;;19.15;6.50;;;;;;;;;;5022299;28;20490;-65
2024/01/12 10:51:47;;;;;;;21.20;5.70;;;;;;;;;;5039240;28;20040;-68
2024/01/12 10:54:17;;;;;;;19.02;6.03;;;;;;;;;;5058330;22;20132;-69
2024/01/12 10:56:43;;;;;;;19.58;5.97;;;;;;;;;;5030139;28;20033;-69
2024/01/12 10:59:10;;;;;;;19.58;6.32;;;;;;;;;;5024316;28;20122;-69
2024/01/12 11:01:36;;;;;;;18.48;5.95;;;;;;;;;;5010186;28;20498;-70
2024/01/12 11:04:06;;;;;;;22.88;5.97;;;;;;;;;;5010048;28;20060;-71
2024/01/12 11:06:32;;;;;;;18.10;5.45;;;;;;;;;;5010883;28;20053;-70
2024/01/12 11:08:59;;;;;;;13.13;5.00;;;;;;;;;;5022620;28;20065;-71
2024/01/12 11:11:30;;;;;;;20.38;5.68;;;;;;;;;;5026665;28;20034;-71
2024/01/12 11:13:56;;;;;;;17.50;5.28;;;;;;;;;;5031159;28;20041;-72
2024/01/12 11:16:22;;;;;;;16.15;5.15;;;;;;;;;;5031279;28;20152;-71
2024/01/12 11:18:48;;;;;;;22.08;4.90;;;;;;;;;;5014013;28;20045;-71
2024/01/12 11:21:22;;;;;;;15.48;4.93;;;;;;;;;;5030406;28;20555;-71
2024/01/12 11:23:48;;;;;;;14.68;4.80;;;;;;;;;;5029827;28;20067;-71
2024/01/12 11:26:14;;;;;;;12.98;4.40;;;;;;;;;;5032293;28;20045;-71
2024/01/12 11:28:40;;;;;;;18.75;4.50;;;;;;;;;;5031028;28;20045;-70
2024/01/12 11:31:06;;;;;;;19.00;4.95;;;;;;;;;;5031109;28;20041;-71
2024/01/12 11:33:41;;;;;;;19.00;4.75;;;;;;;;;;5025591;28;20042;-70
2024/01/12 11:36:09;;;;;;;17.42;4.30;;;;;;;;;;5031757;28;20037;-70
2024/01/12 11:38:42;;;;;;;23.73;4.35;;;;;;;;;;5030600;28;20045;-70
2024/01/12 11:41:10;;;;;;;14.95;3.95;;;;;;;;;;5027688;28;20758;-71
2024/01/12 11:43:36;;;;;;;16.90;4.15;;;;;;;;;;5030939;28;20407;-71
2024/01/12 11:46:02;;;;;;;20.55;4.10;;;;;;;;;;5030388;28;20121;-71
2024/01/12 11:48:29;;;;;;;17.23;4.20;;;;;;;;;;5011694;28;20128;-71
2024/01/12 11:50:55;;;;;;;14.88;3.63;;;;;;;;;;5030678;28;20403;-70
2024/01/12 11:53:21;;;;;;;13.73;3.40;;;;;;;;;;5031210;28;20044;-70
2024/01/12 11:55:48;;;;;;;17.83;3.03;;;;;;;;;;5031867;28;20051;-71
2024/01/12 11:58:14;;;;;;;15.68;3.47;;;;;;;;;;5031213;28;20483;-70
2024/01/12 12:00:40;;;;;;;15.18;3.72;;;;;;;;;;5013623;28;20124;-71
2024/01/12 12:03:08;;;;;;;17.33;3.60;;;;;;;;;;5030848;28;20037;-71
2024/01/12 12:05:34;;;;;;;19.73;3.72;;;;;;;;;;5031511;28;20503;-71
2024/01/12 12:08:00;;;;;;;14.85;3.58;;;;;;;;;;5013785;28;20045;-71
2024/01/12 12:10:27;;;;;;;18.50;3.50;;;;;;;;;;5029425;28;20048;-71
2024/01/12 12:12:52;;;;;;;19.23;4.15;;;;;;;;;;5025319;28;20411;-71
2024/01/12 12:15:18;;;;;;;17.52;3.72;;;;;;;;;;5025990;28;20046;-72
2024/01/12 12:17:48;;;;;;;15.90;3.92;;;;;;;;;;5035352;28;20464;-71
2024/01/12 12:20:15;;;;;;;17.20;3.95;;;;;;;;;;5034447;28;20038;-71
2024/01/12 12:22:42;;;;;;;20.95;3.42;;;;;;;;;;5049197;22;20037;-71
2024/01/12 12:25:12;;;;;;;21.50;4.05;;;;;;;;;;5008447;28;20045;-71
2024/01/12 12:27:42;;;;;;;13.20;3.20;;;;;;;;;;5029423;28;20065;-70
2024/01/12 12:30:08;;;;;;;17.50;3.80;;;;;;;;;;5035730;22;20042;-73
2024/01/12 12:32:34;;;;;;;17.98;3.22;;;;;;;;;;5054551;28;20091;-72
2024/01/12 12:35:11;;;;;;;14.15;3.38;;;;;;;;;;5069296;28;20064;-71
2024/01/12 12:37:37;;;;;;;20.17;3.92;;;;;;;;;;5040870;28;20047;-71
2024/01/12 12:40:04;;;;;;;21.67;3.50;;;;;;;;;;5047904;28;20040;-71
2024/01/12 12:42:31;;;;;;;16.88;3.95;;;;;;;;;;5054340;28;20049;-71
2024/01/12 12:44:57;;;;;;;16.73;3.17;;;;;;;;;;5064313;28;20094;-71
2024/01/12 12:47:23;;;;;;;18.85;3.20;;;;;;;;;;5055601;28;20044;-71
2024/01/12 12:49:49;;;;;;;17.42;3.50;;;;;;;;;;5064109;28;20036;-71
2024/01/12 12:52:15;;;;;;;12.50;3.13;;;;;;;;;;5056465;28;20044;-71
2024/01/12 12:54:41;;;;;;;12.63;3.33;;;;;;;;;;5057791;28;20040;-71
2024/01/12 12:57:07;;;;;;;15.57;3.10;;;;;;;;;;5041903;28;20365;-71
2024/01/12 12:59:33;;;;;;;18.77;3.83;;;;;;;;;;5074102;28;20036;-71
2024/01/12 13:02:03;;;;;;;17.98;3.05;;;;;;;;;;5059998;28;20051;-71
2024/01/12 13:04:29;;;;;;;20.88;3.55;;;;;;;;;;5056057;28;20484;-71
2024/01/12 13:06:55;;;;;;;17.02;3.08;;;;;;;;;;5055935;28;20127;-72
2024/01/12 13:09:21;;;;;;;15.13;3.33;;;;;;;;;;5062482;28;20036;-72
2024/01/12 13:11:47;;;;;;;20.55;4.00;;;;;;;;;;5065709;28;20392;-72
2024/01/12 13:14:13;;;;;;;16.42;4.10;;;;;;;;;;5054668;28;20040;-71
2024/01/12 13:16:39;;;;;;;18.42;3.60;;;;;;;;;;5057232;28;20048;-71
2024/01/12 13:19:05;;;;;;;18.15;3.75;;;;;;;;;;5061114;28;20040;-71
2024/01/12 13:21:34;;;;;;;20.63;3.30;;;;;;;;;;5057386;28;20198;-71
2024/01/12 13:24:00;;;;;;;19.90;3.00;;;;;;;;;;5055540;28;20048;-71
2024/01/12 13:26:29;;;;;;;17.60;4.00;;;;;;;;;;5054688;28;20036;-71
2024/01/12 13:28:55;;;;;;;16.05;3.45;;;;;;;;;;5063381;28;20400;-71
2024/01/12 13:31:21;;;;;;;20.85;3.35;;;;;;;;;;5072590;28;20403;-73
2024/01/12 13:33:48;;;;;;;18.38;3.63;;;;;;;;;;5073308;28;20045;-71
2024/01/12 13:36:14;;;;;;;15.85;3.78;;;;;;;;;;5073134;28;20488;-71
2024/01/12 13:38:41;;;;;;;16.48;3.88;;;;;;;;;;5069289;28;20040;-71
2024/01/12 13:41:09;;;;;;;17.60;3.40;;;;;;;;;;5053228;28;20072;-72
2024/01/12 13:43:36;;;;;;;20.23;3.58;;;;;;;;;;5068397;28;20090;-71
2024/01/12 13:46:03;;;;;;;14.88;3.33;;;;;;;;;;5055221;28;20052;-71
2024/01/12 13:48:29;;;;;;;18.25;3.63;;;;;;;;;;5072203;28;20040;-71
2024/01/12 13:50:56;;;;;;;20.58;3.95;;;;;;;;;;5049875;28;20496;-70
2024/01/12 13:53:22;;;;;;;15.63;3.38;;;;;;;;;;5071170;28;20106;-71
2024/01/12 13:55:50;;;;;;;15.40;3.20;;;;;;;;;;5058591;28;20564;-71
2024/01/12 13:58:16;;;;;;;18.00;4.15;;;;;;;;;;5059560;28;20362;-71
2024/01/12 14:00:42;;;;;;;19.67;3.90;;;;;;;;;;5056828;28;20048;-72
2024/01/12 14:03:10;;;;;;;14.95;3.60;;;;;;;;;;5051621;28;20075;-71
2024/01/12 14:05:36;;;;;;;15.98;3.10;;;;;;;;;;5055499;28;20040;-71
2024/01/12 14:08:02;;;;;;;18.60;3.42;;;;;;;;;;5058271;28;20048;-71
2024/01/12 14:10:28;;;;;;;16.30;3.40;;;;;;;;;;5054338;28;20051;-71
2024/01/12 14:12:54;;;;;;;15.68;3.22;;;;;;;;;;5066691;28;20124;-71
2024/01/12 14:15:21;;;;;;;15.48;3.40;;;;;;;;;;5069460;28;20127;-71
2024/01/12 14:17:47;;;;;;;15.20;3.15;;;;;;;;;;5067044;28;20047;-71
2024/01/12 14:20:12;;;;;;;14.07;3.05;;;;;;;;;;5062822;28;20416;-71
2024/01/12 14:22:42;;;;;;;17.60;3.97;;;;;;;;;;5055913;28;20048;-71
2024/01/12 14:25:09;;;;;;;21.13;3.58;;;;;;;;;;5061319;28;20484;-71